Time;durP1;ratioP1;P1;durP2;ratioP2;P2;SDS_P1;SDS_P2;PMS_P1;PMS_P2;Temp;Humidity;BMP_temperature;BMP_pressure;BME280_temperature;BME280_humidity;BME280_pressure;Samples;Min_cycle;Max_cycle;Signal;HPM_P1;HPM_P2
2021/04/17 00:02:22;;;;;;;16.42;9.52;;;0.20;67.60;;;;;;4991030;29;20082;-67
2021/04/17 00:04:54;;;;;;;13.35;9.93;;;0.10;68.30;;;;;;5017813;29;21594;-67
2021/04/17 00:07:26;;;;;;;12.85;9.88;;;0.00;68.90;;;;;;5004102;29;20409;-66
2021/04/17 00:09:58;;;;;;;13.80;9.80;;;-0.10;69.00;;;;;;5004808;29;20049;-66
2021/04/17 00:12:30;;;;;;;12.85;9.35;;;-0.20;69.00;;;;;;4990065;29;20395;-66
2021/04/17 00:15:02;;;;;;;12.60;8.90;;;-0.20;69.30;;;;;;4992455;29;20106;-66
2021/04/17 00:17:33;;;;;;;13.07;9.45;;;-0.10;68.30;;;;;;4991231;29;20084;-66
2021/04/17 00:20:07;;;;;;;11.88;8.95;;;0.00;68.60;;;;;;4990621;29;20046;-67
2021/04/17 00:22:39;;;;;;;11.85;8.65;;;0.10;68.40;;;;;;4990692;29;20058;-67
2021/04/17 00:25:11;;;;;;;13.23;9.77;;;0.20;68.90;;;;;;4990141;29;20045;-67
2021/04/17 00:27:42;;;;;;;12.52;9.32;;;0.00;68.90;;;;;;4988134;29;20095;-67
2021/04/17 00:30:14;;;;;;;13.18;9.95;;;-0.10;68.70;;;;;;4987412;29;20046;-67
2021/04/17 00:32:45;;;;;;;11.93;8.40;;;-0.10;69.10;;;;;;4991481;29;20058;-67
2021/04/17 00:35:17;;;;;;;13.25;9.48;;;0.00;68.80;;;;;;5004843;29;20389;-67
2021/04/17 00:37:48;;;;;;;11.55;8.55;;;0.00;67.70;;;;;;4989429;29;20043;-67
2021/04/17 00:40:20;;;;;;;11.15;8.55;;;0.10;67.60;;;;;;4989096;29;20619;-67
2021/04/17 00:42:52;;;;;;;11.93;8.77;;;0.10;67.50;;;;;;4986931;29;20054;-67
2021/04/17 00:45:23;;;;;;;13.23;8.73;;;0.00;67.50;;;;;;4982502;29;20047;-67
2021/04/17 00:47:55;;;;;;;16.80;9.35;;;0.10;67.70;;;;;;4989665;29;20042;-67
2021/04/17 00:50:27;;;;;;;12.60;8.90;;;0.00;67.70;;;;;;4987861;29;20727;-67
2021/04/17 00:52:58;;;;;;;13.20;9.38;;;0.00;67.90;;;;;;5003545;29;20050;-67
2021/04/17 00:55:30;;;;;;;13.60;9.30;;;0.00;67.90;;;;;;5003737;29;20396;-67
2021/04/17 00:58:04;;;;;;;12.15;8.50;;;0.00;67.70;;;;;;5002383;29;20057;-67
2021/04/17 01:00:37;;;;;;;12.10;9.07;;;-0.20;68.30;;;;;;4988939;29;20412;-67
2021/04/17 01:03:18;;;;;;;13.27;9.65;;;-0.20;68.20;;;;;;5006440;29;20143;-67
2021/04/17 01:05:53;;;;;;;13.43;9.27;;;-0.20;68.40;;;;;;4991722;29;20195;-67
2021/04/17 01:08:30;;;;;;;11.35;8.20;;;-0.20;67.80;;;;;;4992698;29;20050;-67
2021/04/17 01:11:07;;;;;;;13.10;9.13;;;-0.20;68.00;;;;;;4995926;29;20057;-67
2021/04/17 01:13:42;;;;;;;12.93;9.30;;;-0.20;67.70;;;;;;4996246;29;20038;-67
2021/04/17 01:16:13;;;;;;;12.27;8.85;;;-0.30;68.20;;;;;;4988278;29;20051;-67
2021/04/17 01:18:46;;;;;;;12.75;9.40;;;-0.20;67.80;;;;;;4993597;29;20626;-67
2021/04/17 01:21:18;;;;;;;12.05;8.95;;;-0.20;67.10;;;;;;4992996;29;20058;-67
2021/04/17 01:23:54;;;;;;;13.23;8.70;;;-0.20;67.50;;;;;;4989985;29;20098;-67
2021/04/17 01:26:27;;;;;;;12.98;9.60;;;-0.20;67.60;;;;;;4991692;29;20071;-67
2021/04/17 01:28:58;;;;;;;12.55;9.25;;;-0.20;67.00;;;;;;4992817;29;20034;-67
2021/04/17 01:31:33;;;;;;;12.95;9.30;;;-0.20;66.70;;;;;;4994838;29;20517;-67
2021/04/17 01:34:05;;;;;;;12.35;9.13;;;-0.20;66.70;;;;;;4993686;29;20049;-69
2021/04/17 01:36:38;;;;;;;13.10;9.40;;;-0.30;67.80;;;;;;4990995;29;20066;-67
2021/04/17 01:39:12;;;;;;;13.10;9.18;;;-0.30;66.90;;;;;;4990742;29;20491;-68
2021/04/17 01:41:47;;;;;;;14.00;9.02;;;-0.30;66.40;;;;;;4992049;29;20133;-67
2021/04/17 01:44:22;;;;;;;14.55;9.52;;;-0.30;66.70;;;;;;4995174;29;20053;-67
2021/04/17 01:47:02;;;;;;;12.90;9.63;;;-0.30;66.50;;;;;;4994148;29;20037;-67
2021/04/17 01:49:45;;;;;;;14.38;10.18;;;-0.30;66.40;;;;;;4982998;29;20050;-67
2021/04/17 01:52:22;;;;;;;16.08;10.18;;;-0.30;66.00;;;;;;4989644;29;20558;-68
2021/04/17 01:54:56;;;;;;;12.68;9.10;;;-0.20;66.00;;;;;;4988994;29;20060;-67
2021/04/17 01:57:29;;;;;;;14.52;10.35;;;-0.30;66.90;;;;;;4989619;29;20431;-67
2021/04/17 02:00:00;;;;;;;12.80;9.43;;;-0.30;66.60;;;;;;5007758;29;20054;-67
2021/04/17 02:02:32;;;;;;;13.07;9.05;;;-0.30;66.60;;;;;;4994860;29;20141;-67
2021/04/17 02:05:04;;;;;;;11.70;8.40;;;-0.30;65.80;;;;;;4992264;29;20084;-67
2021/04/17 02:07:36;;;;;;;14.50;9.73;;;-0.30;65.40;;;;;;4992023;29;20513;-67
2021/04/17 02:10:08;;;;;;;12.88;9.02;;;-0.30;65.50;;;;;;4991790;29;20117;-67
2021/04/17 02:12:40;;;;;;;12.75;8.80;;;-0.30;65.60;;;;;;5008484;29;20054;-68
2021/04/17 02:15:11;;;;;;;14.40;9.73;;;-0.30;64.90;;;;;;4993210;29;20095;-67
2021/04/17 02:17:54;;;;;;;15.30;9.73;;;-0.30;64.80;;;;;;4991749;29;20129;-69
2021/04/17 02:21:00;;;;;;;13.48;9.40;;;-0.40;64.60;;;;;;4992191;29;20045;-67
2021/04/17 02:23:33;;;;;;;15.43;9.80;;;-0.40;65.40;;;;;;4993286;29;20126;-67
2021/04/17 02:26:05;;;;;;;13.52;9.65;;;-0.40;65.70;;;;;;4988994;29;20926;-67
2021/04/17 02:28:37;;;;;;;13.40;9.70;;;-0.60;67.50;;;;;;4991263;29;20142;-67
2021/04/17 02:31:09;;;;;;;14.25;10.27;;;-0.60;67.40;;;;;;4992411;29;20759;-67
2021/04/17 02:33:41;;;;;;;14.20;10.25;;;-0.80;68.30;;;;;;4990432;29;20484;-66
2021/04/17 02:36:12;;;;;;;15.50;10.35;;;-0.80;68.00;;;;;;5001898;29;20050;-67
2021/04/17 02:38:44;;;;;;;15.15;9.23;;;-1.00;68.30;;;;;;4991334;29;20086;-67
2021/04/17 02:41:16;;;;;;;15.75;9.57;;;-1.00;67.80;;;;;;4989787;29;20042;-67
2021/04/17 02:43:48;;;;;;;13.75;9.30;;;-0.90;66.80;;;;;;4993551;29;20135;-67
2021/04/17 02:46:20;;;;;;;14.20;10.10;;;-0.80;67.50;;;;;;4987580;29;20500;-67
2021/04/17 02:48:52;;;;;;;14.10;9.57;;;-0.80;67.50;;;;;;4990215;29;20060;-67
2021/04/17 02:51:23;;;;;;;14.57;9.55;;;-0.80;66.90;;;;;;4989151;29;20053;-67
2021/04/17 02:53:55;;;;;;;14.70;9.85;;;-0.80;66.80;;;;;;4996581;29;20053;-67
2021/04/17 02:56:26;;;;;;;14.45;10.82;;;-0.80;66.60;;;;;;4992425;29;20073;-67
2021/04/17 02:58:57;;;;;;;14.15;10.18;;;-0.80;66.60;;;;;;5004181;29;20081;-67
2021/04/17 03:01:29;;;;;;;14.68;10.48;;;-0.80;67.80;;;;;;4991364;29;20058;-66
2021/04/17 03:04:01;;;;;;;15.73;10.85;;;-0.90;67.90;;;;;;4991949;29;20053;-66
2021/04/17 03:06:32;;;;;;;15.02;10.90;;;-1.10;68.40;;;;;;4992533;29;20058;-66
2021/04/17 03:09:04;;;;;;;14.35;10.45;;;-1.30;69.90;;;;;;4992845;29;20053;-66
2021/04/17 03:11:36;;;;;;;15.63;10.63;;;-1.50;70.60;;;;;;4989370;29;20059;-67
2021/04/17 03:14:07;;;;;;;15.38;10.68;;;-1.60;71.40;;;;;;5004543;29;20073;-66
2021/04/17 03:16:39;;;;;;;15.38;11.27;;;-1.70;71.50;;;;;;4990414;29;20042;-67
2021/04/17 03:19:10;;;;;;;16.63;11.68;;;-1.70;71.70;;;;;;4989413;29;20110;-67
2021/04/17 03:21:42;;;;;;;21.30;12.38;;;-1.80;71.70;;;;;;4993799;29;20059;-66
2021/04/17 03:24:14;;;;;;;17.92;11.20;;;-1.80;72.30;;;;;;4992107;29;20050;-67
2021/04/17 03:26:45;;;;;;;16.23;10.48;;;-1.70;72.30;;;;;;4991382;29;20050;-66
2021/04/17 03:29:16;;;;;;;15.00;10.32;;;-1.60;70.70;;;;;;4990691;29;20046;-66
2021/04/17 03:31:48;;;;;;;15.82;10.70;;;-1.50;70.00;;;;;;4988416;29;20133;-66
2021/04/17 03:34:20;;;;;;;15.90;11.57;;;-1.40;70.30;;;;;;5004389;29;20054;-66
2021/04/17 03:36:51;;;;;;;15.80;11.30;;;-1.50;70.80;;;;;;4989066;29;20046;-66
2021/04/17 03:39:23;;;;;;;15.73;10.85;;;-1.60;71.20;;;;;;5007127;29;20612;-66
2021/04/17 03:41:55;;;;;;;14.82;10.20;;;-1.60;71.20;;;;;;5004574;29;20762;-66
2021/04/17 03:44:26;;;;;;;17.25;11.73;;;-1.70;71.30;;;;;;5003176;29;20111;-66
2021/04/17 03:46:58;;;;;;;15.52;11.13;;;-1.80;71.90;;;;;;4999882;29;20114;-66
2021/04/17 03:49:29;;;;;;;16.30;11.02;;;-1.80;72.10;;;;;;4987700;29;20478;-66
2021/04/17 03:52:01;;;;;;;16.40;11.38;;;-1.80;72.10;;;;;;4985749;29;20054;-66
2021/04/17 03:54:32;;;;;;;17.50;11.77;;;-1.80;72.00;;;;;;4986615;29;20150;-66
2021/04/17 03:57:04;;;;;;;15.68;10.70;;;-1.80;72.20;;;;;;4987085;29;20453;-66
2021/04/17 03:59:36;;;;;;;17.42;11.13;;;-1.90;72.40;;;;;;4988765;29;20103;-66
2021/04/17 04:02:07;;;;;;;15.82;11.52;;;-1.90;72.90;;;;;;4985206;29;20118;-66
2021/04/17 04:04:39;;;;;;;16.48;11.52;;;-1.90;72.80;;;;;;5000559;29;20209;-66
2021/04/17 04:07:11;;;;;;;15.98;10.85;;;-1.90;72.50;;;;;;4983675;29;20138;-66
2021/04/17 04:09:42;;;;;;;15.45;10.73;;;-1.90;72.60;;;;;;4991254;29;20047;-66
2021/04/17 04:12:14;;;;;;;15.75;10.65;;;-1.90;72.90;;;;;;4988152;29;20091;-66
2021/04/17 04:14:46;;;;;;;14.20;10.02;;;-1.90;72.60;;;;;;4987853;29;20130;-66
2021/04/17 04:17:17;;;;;;;15.13;10.75;;;-1.80;71.80;;;;;;4990696;29;20373;-66
2021/04/17 04:19:49;;;;;;;16.23;11.05;;;-1.70;71.80;;;;;;5001493;29;20124;-66
2021/04/17 04:22:21;;;;;;;15.27;10.23;;;-1.70;71.20;;;;;;5004232;29;20058;-66
2021/04/17 04:24:52;;;;;;;15.27;11.05;;;-1.60;70.40;;;;;;4990667;29;20046;-65
2021/04/17 04:27:24;;;;;;;15.23;10.13;;;-1.60;70.50;;;;;;4986441;29;20172;-66
2021/04/17 04:29:55;;;;;;;15.95;10.15;;;-1.60;70.20;;;;;;4986830;29;20115;-65
2021/04/17 04:32:27;;;;;;;15.10;10.07;;;-1.60;70.40;;;;;;4989023;29;20065;-66
2021/04/17 04:34:59;;;;;;;17.02;10.02;;;-1.60;70.70;;;;;;4989599;29;20228;-65
2021/04/17 04:37:30;;;;;;;14.23;9.95;;;-1.70;71.00;;;;;;4988212;29;20107;-66
2021/04/17 04:40:05;;;;;;;17.40;11.90;;;-1.60;70.70;;;;;;4992358;29;20655;-66
2021/04/17 04:42:37;;;;;;;16.90;11.30;;;-1.60;70.70;;;;;;4991117;29;20050;-66
2021/04/17 04:45:09;;;;;;;17.67;11.82;;;-1.70;71.30;;;;;;4991756;29;20063;-66
2021/04/17 04:47:41;;;;;;;17.00;11.55;;;-1.80;71.60;;;;;;4994263;29;20082;-66
2021/04/17 04:50:13;;;;;;;18.50;10.55;;;-1.70;72.10;;;;;;4992253;29;20054;-67
2021/04/17 04:52:45;;;;;;;16.38;10.77;;;-1.70;71.60;;;;;;4994179;29;20848;-66
2021/04/17 04:55:16;;;;;;;16.85;11.20;;;-1.80;73.00;;;;;;4996382;29;20046;-66
2021/04/17 04:57:48;;;;;;;18.00;11.68;;;-1.70;71.80;;;;;;5006431;29;20080;-65
2021/04/17 05:00:19;;;;;;;16.92;11.20;;;-1.70;72.30;;;;;;4992670;29;20545;-66
2021/04/17 05:02:51;;;;;;;18.42;12.23;;;-1.70;72.00;;;;;;4996056;29;20436;-66
2021/04/17 05:05:23;;;;;;;17.83;11.90;;;-1.70;72.80;;;;;;5005247;29;20418;-66
2021/04/17 05:07:54;;;;;;;17.98;11.60;;;-1.70;72.80;;;;;;5007680;29;20489;-66
2021/04/17 05:10:26;;;;;;;20.63;11.82;;;-1.60;72.80;;;;;;4990292;29;20062;-66
2021/04/17 05:12:57;;;;;;;16.83;11.32;;;-1.50;71.30;;;;;;4993774;29;20049;-66
2021/04/17 05:15:29;;;;;;;19.00;12.05;;;-1.40;71.70;;;;;;4992526;29;20127;-67
2021/04/17 05:18:00;;;;;;;17.88;11.10;;;-1.20;71.20;;;;;;5007810;29;20543;-66
2021/04/17 05:20:32;;;;;;;16.98;11.63;;;-1.10;70.50;;;;;;4994863;29;20152;-66
2021/04/17 05:23:03;;;;;;;16.58;11.45;;;-1.00;70.40;;;;;;4991911;29;20078;-67
2021/04/17 05:25:35;;;;;;;19.50;12.45;;;-0.90;70.00;;;;;;5009315;29;20489;-66
2021/04/17 05:28:08;;;;;;;17.17;11.57;;;-0.70;70.00;;;;;;4991900;29;20069;-66
2021/04/17 05:30:40;;;;;;;17.55;12.05;;;-0.60;69.80;;;;;;4990396;29;20153;-66
2021/04/17 05:33:12;;;;;;;18.48;11.25;;;-0.60;70.90;;;;;;4989566;29;20455;-66
2021/04/17 05:35:43;;;;;;;16.15;10.82;;;-0.50;71.30;;;;;;4990566;29;20544;-66
2021/04/17 05:38:15;;;;;;;16.23;11.23;;;-0.40;70.50;;;;;;4992739;29;20066;-66
2021/04/17 05:40:46;;;;;;;16.83;10.93;;;-0.30;70.00;;;;;;4993634;29;20070;-67
2021/04/17 05:43:17;;;;;;;15.48;10.82;;;-0.20;69.90;;;;;;5005765;29;20081;-67
2021/04/17 05:45:49;;;;;;;16.42;11.02;;;-0.10;69.40;;;;;;5006286;29;20050;-67
2021/04/17 05:48:20;;;;;;;17.30;11.98;;;0.10;68.90;;;;;;4994817;29;20054;-66
2021/04/17 05:50:52;;;;;;;17.20;11.20;;;0.20;68.60;;;;;;5001444;29;20470;-69
2021/04/17 05:53:24;;;;;;;16.63;11.35;;;0.30;68.40;;;;;;4993498;29;20054;-67
2021/04/17 05:55:56;;;;;;;16.73;11.85;;;0.40;68.10;;;;;;4991674;29;20206;-66
2021/04/17 05:58:27;;;;;;;16.20;11.07;;;0.60;68.10;;;;;;4990508;29;20137;-66
2021/04/17 06:00:59;;;;;;;19.05;11.77;;;0.80;67.80;;;;;;4988435;29;20091;-66
2021/04/17 06:03:30;;;;;;;16.17;11.30;;;0.90;67.10;;;;;;4991653;29;20050;-66
2021/04/17 06:06:02;;;;;;;24.77;15.77;;;1.00;66.90;;;;;;4989528;29;20556;-68
2021/04/17 06:08:33;;;;;;;16.83;11.77;;;1.00;66.80;;;;;;4991810;29;20073;-68
2021/04/17 06:11:06;;;;;;;15.65;10.95;;;1.20;66.70;;;;;;5007827;29;20046;-66
2021/04/17 06:13:38;;;;;;;18.38;12.80;;;1.30;66.10;;;;;;4996387;29;20126;-66
2021/04/17 06:16:09;;;;;;;19.70;14.20;;;1.50;65.70;;;;;;4986857;29;20364;-66
2021/04/17 06:18:41;;;;;;;20.33;14.88;;;1.60;65.50;;;;;;4990828;29;20832;-66
2021/04/17 06:21:14;;;;;;;17.10;12.23;;;1.80;65.20;;;;;;4989832;29;20057;-66
2021/04/17 06:23:45;;;;;;;17.38;12.43;;;1.90;64.50;;;;;;4998143;29;21346;-66
2021/04/17 06:26:17;;;;;;;14.35;11.05;;;2.10;63.60;;;;;;4993107;29;20504;-66
2021/04/17 06:28:49;;;;;;;17.02;12.00;;;2.20;63.10;;;;;;4992646;29;20111;-66
2021/04/17 06:31:21;;;;;;;13.25;10.35;;;2.30;62.90;;;;;;4990239;29;20108;-66
2021/04/17 06:33:53;;;;;;;17.17;11.60;;;2.50;62.40;;;;;;4993752;29;20046;-65
2021/04/17 06:36:25;;;;;;;15.32;11.15;;;2.70;62.50;;;;;;4989143;29;20046;-65
2021/04/17 06:38:57;;;;;;;17.67;12.07;;;2.80;61.90;;;;;;4991529;29;20046;-65
2021/04/17 06:41:33;;;;;;;16.17;11.57;;;2.90;62.00;;;;;;4989947;29;20543;-65
2021/04/17 06:44:05;;;;;;;16.05;11.48;;;3.10;61.50;;;;;;4989232;29;20548;-65
2021/04/17 06:46:39;;;;;;;17.75;12.23;;;3.20;61.40;;;;;;4988520;29;20050;-65
2021/04/17 06:49:11;;;;;;;17.90;12.57;;;3.30;60.50;;;;;;5002560;29;20049;-65
2021/04/17 06:51:47;;;;;;;15.02;11.05;;;3.40;60.10;;;;;;4990930;29;20045;-65
2021/04/17 06:54:20;;;;;;;15.32;11.32;;;3.30;60.30;;;;;;4992470;29;20041;-65
2021/04/17 06:56:52;;;;;;;19.88;12.35;;;3.20;59.80;;;;;;4990929;29;20046;-66
2021/04/17 06:59:24;;;;;;;15.93;11.77;;;3.00;60.20;;;;;;4990044;29;20099;-65
2021/04/17 07:01:55;;;;;;;17.67;12.80;;;2.90;60.60;;;;;;5004680;29;20575;-65
2021/04/17 07:04:27;;;;;;;17.20;12.25;;;2.80;61.10;;;;;;4992158;29;20062;-65
2021/04/17 07:07:01;;;;;;;18.58;12.63;;;2.70;61.30;;;;;;4986922;29;20057;-65
2021/04/17 07:09:33;;;;;;;17.77;12.40;;;2.70;61.70;;;;;;4989364;29;20069;-65
2021/04/17 07:12:05;;;;;;;16.40;12.05;;;2.80;62.10;;;;;;4988314;29;20183;-64
2021/04/17 07:14:49;;;;;;;17.77;13.23;;;2.80;62.10;;;;;;4986127;29;20062;-66
2021/04/17 07:17:21;;;;;;;16.98;13.05;;;2.80;61.90;;;;;;4987292;29;20046;-64
2021/04/17 07:20:01;;;;;;;18.85;13.60;;;2.80;62.70;;;;;;4988663;29;20113;-65
2021/04/17 07:22:37;;;;;;;17.13;12.73;;;2.90;63.00;;;;;;5001477;29;20042;-65
2021/04/17 07:25:09;;;;;;;17.65;13.23;;;2.90;62.50;;;;;;4985248;29;20122;-65
2021/04/17 07:27:47;;;;;;;17.80;12.60;;;3.00;62.50;;;;;;4985406;29;20058;-67
2021/04/17 07:30:19;;;;;;;17.20;12.40;;;3.10;62.20;;;;;;4988898;29;20051;-64
2021/04/17 07:33:14;;;;;;;28.35;17.25;;;3.30;61.90;;;;;;4987599;29;20049;-65
2021/04/17 07:35:51;;;;;;;20.75;13.82;;;3.40;61.60;;;;;;4989483;29;20048;-66
2021/04/17 07:38:33;;;;;;;18.75;13.68;;;3.60;61.20;;;;;;4987594;29;20197;-66
2021/04/17 07:41:16;;;;;;;21.52;15.02;;;3.80;60.70;;;;;;4989550;29;20053;-66
2021/04/17 07:44:03;;;;;;;17.30;12.93;;;4.00;60.90;;;;;;4989357;29;20057;-66
2021/04/17 07:46:43;;;;;;;25.00;17.60;;;4.20;60.00;;;;;;4991585;29;20058;-67
2021/04/17 07:49:19;;;;;;;;;;;4.40;59.40;;;;;;4991241;29;20426;-67
2021/04/17 07:51:56;;;;;;;18.08;13.48;;;4.50;58.30;;;;;;5020356;29;20003;-67
2021/04/17 07:54:29;;;;;;;18.48;12.68;;;4.50;57.90;;;;;;4991810;29;20042;-67
2021/04/17 07:57:06;;;;;;;16.67;12.50;;;4.70;58.00;;;;;;4992261;29;20066;-67
2021/04/17 07:59:41;;;;;;;15.48;12.00;;;4.70;57.60;;;;;;4989335;29;20050;-67
2021/04/17 08:02:14;;;;;;;17.23;12.73;;;4.90;57.60;;;;;;4987562;29;20051;-67
2021/04/17 08:04:47;;;;;;;16.40;12.75;;;5.20;57.70;;;;;;4989736;29;20465;-67
2021/04/17 08:07:19;;;;;;;16.13;13.20;;;5.30;56.20;;;;;;4990514;29;20107;-68
2021/04/17 08:09:53;;;;;;;18.13;13.23;;;5.40;56.30;;;;;;4987977;29;20060;-69
2021/04/17 08:12:25;;;;;;;18.88;12.50;;;5.50;55.50;;;;;;4989472;29;20058;-67
2021/04/17 08:14:56;;;;;;;17.30;12.35;;;5.60;55.20;;;;;;4994843;29;20041;-68
2021/04/17 08:17:28;;;;;;;15.73;12.10;;;5.70;55.50;;;;;;4995642;29;20066;-67
2021/04/17 08:20:00;;;;;;;17.40;13.30;;;5.70;54.60;;;;;;4993930;29;20061;-67
2021/04/17 08:22:33;;;;;;;17.05;13.30;;;5.70;55.10;;;;;;4995854;29;20046;-67
2021/04/17 08:25:06;;;;;;;17.98;13.52;;;5.80;55.50;;;;;;4998037;29;20054;-67
2021/04/17 08:27:39;;;;;;;16.90;12.65;;;5.90;55.20;;;;;;4995046;29;20042;-68
2021/04/17 08:30:23;;;;;;;16.60;13.18;;;5.90;55.80;;;;;;4993373;29;20045;-67
2021/04/17 08:33:10;;;;;;;16.70;12.35;;;5.90;56.20;;;;;;4994265;29;20046;-67
2021/04/17 08:35:43;;;;;;;16.25;12.55;;;6.00;55.70;;;;;;4996666;29;20051;-68
2021/04/17 08:38:15;;;;;;;15.40;12.35;;;5.90;56.10;;;;;;5007871;29;20042;-69
2021/04/17 08:40:49;;;;;;;15.68;11.90;;;6.10;56.10;;;;;;4990765;29;20126;-67
2021/04/17 08:43:21;;;;;;;15.82;12.05;;;6.40;54.80;;;;;;4988783;29;20103;-67
2021/04/17 08:46:11;;;;;;;16.60;12.75;;;6.50;54.00;;;;;;4991647;29;20133;-67
2021/04/17 08:48:52;;;;;;;15.63;12.57;;;6.60;55.80;;;;;;4993722;29;20765;-67
2021/04/17 08:51:30;;;;;;;15.65;12.13;;;6.80;54.80;;;;;;4993123;29;20057;-67
2021/04/17 08:54:01;;;;;;;14.35;11.40;;;6.90;54.30;;;;;;5006907;29;20046;-65
2021/04/17 08:56:52;;;;;;;15.23;11.98;;;7.20;53.30;;;;;;4992231;29;20087;-65
2021/04/17 08:59:31;;;;;;;14.40;11.48;;;7.50;54.40;;;;;;4994115;29;20418;-64
2021/04/17 09:02:08;;;;;;;15.68;11.98;;;7.80;50.80;;;;;;4990321;29;20095;-64
2021/04/17 09:05:07;;;;;;;16.73;12.88;;;7.80;50.00;;;;;;5009265;29;20118;-64
2021/04/17 09:07:43;;;;;;;13.93;11.63;;;7.40;50.60;;;;;;4989289;29;20114;-65
2021/04/17 09:10:23;;;;;;;14.25;10.82;;;7.50;52.90;;;;;;4994502;29;20049;-64
2021/04/17 09:13:11;;;;;;;13.10;10.75;;;7.80;50.70;;;;;;4992510;29;20043;-64
2021/04/17 09:15:53;;;;;;;13.90;11.25;;;7.80;49.30;;;;;;4990613;29;20042;-67
2021/04/17 09:18:34;;;;;;;14.27;10.63;;;7.90;49.80;;;;;;4992876;29;20089;-64
2021/04/17 09:21:15;;;;;;;14.13;10.90;;;8.10;49.00;;;;;;4991352;29;20061;-65
2021/04/17 09:23:53;;;;;;;15.77;11.98;;;8.30;49.00;;;;;;4991178;29;20503;-66
2021/04/17 09:26:30;;;;;;;13.07;10.68;;;8.60;49.20;;;;;;4990058;29;20054;-64
2021/04/17 09:29:26;;;;;;;15.63;12.52;;;8.30;47.30;;;;;;4986356;29;20178;-65
2021/04/17 09:31:58;;;;;;;14.00;11.70;;;8.10;48.90;;;;;;4987198;29;20042;-65
2021/04/17 09:34:37;;;;;;;12.98;11.27;;;8.40;48.00;;;;;;4989316;29;20642;-65
2021/04/17 09:37:10;;;;;;;13.95;11.70;;;8.70;47.80;;;;;;4986035;29;20042;-65
2021/04/17 09:39:46;;;;;;;15.88;12.48;;;9.00;46.50;;;;;;5003256;29;20447;-66
2021/04/17 09:42:28;;;;;;;14.65;12.20;;;9.20;47.40;;;;;;5005887;29;20065;-66
2021/04/17 09:45:00;;;;;;;14.38;11.43;;;9.50;45.40;;;;;;4989569;29;20046;-65
2021/04/17 09:47:33;;;;;;;14.50;12.00;;;9.70;44.90;;;;;;4992464;29;20091;-66
2021/04/17 09:50:20;;;;;;;15.57;11.93;;;9.80;45.40;;;;;;4992595;29;20057;-65
2021/04/17 09:52:52;;;;;;;14.95;11.82;;;9.40;45.10;;;;;;4991480;29;20077;-67
2021/04/17 09:55:24;;;;;;;15.05;11.70;;;9.30;44.30;;;;;;4991071;29;20042;-66
2021/04/17 09:57:55;;;;;;;14.68;11.63;;;9.10;44.60;;;;;;4995140;29;20053;-66
2021/04/17 10:00:32;;;;;;;12.80;11.40;;;9.00;44.70;;;;;;4988862;29;20397;-65
2021/04/17 10:03:04;;;;;;;13.40;11.02;;;9.00;44.10;;;;;;4993604;29;20501;-65
2021/04/17 10:05:35;;;;;;;12.45;10.68;;;9.00;44.90;;;;;;4991815;29;20454;-65
2021/04/17 10:08:07;;;;;;;14.10;11.68;;;9.10;45.20;;;;;;4993166;29;20524;-66
2021/04/17 10:10:40;;;;;;;14.73;11.52;;;9.10;44.30;;;;;;4993187;29;20054;-66
2021/04/17 10:13:11;;;;;;;12.77;11.23;;;9.30;44.70;;;;;;4997634;29;20057;-67
2021/04/17 10:15:46;;;;;;;11.77;9.82;;;9.60;43.30;;;;;;4989911;29;20054;-68
2021/04/17 10:18:17;;;;;;;11.90;10.15;;;9.60;40.90;;;;;;4993375;29;20050;-67
2021/04/17 10:20:49;;;;;;;14.60;10.15;;;9.80;41.10;;;;;;4990316;29;20872;-67
2021/04/17 10:23:21;;;;;;;13.00;11.10;;;10.00;39.90;;;;;;5004315;29;20133;-67
2021/04/17 10:25:52;;;;;;;12.52;10.40;;;10.30;40.80;;;;;;5006979;29;20053;-67
2021/04/17 10:28:25;;;;;;;13.30;10.18;;;10.40;38.40;;;;;;5005317;29;20054;-67
2021/04/17 10:30:58;;;;;;;13.45;10.63;;;10.50;40.40;;;;;;4988561;29;20058;-67
2021/04/17 10:33:30;;;;;;;13.13;10.38;;;10.80;38.10;;;;;;4991104;29;20042;-67
2021/04/17 10:36:02;;;;;;;13.02;11.38;;;10.70;37.90;;;;;;4991960;29;20054;-68
2021/04/17 10:38:44;;;;;;;12.30;10.98;;;10.80;38.10;;;;;;4994455;29;20042;-67
2021/04/17 10:41:27;;;;;;;12.35;10.98;;;10.80;37.40;;;;;;5007378;29;20046;-68
2021/04/17 10:44:14;;;;;;;14.90;11.95;;;10.90;39.30;;;;;;4991047;29;20042;-67
2021/04/17 10:46:48;;;;;;;14.02;11.75;;;11.10;40.00;;;;;;4988975;29;20061;-66
2021/04/17 10:49:38;;;;;;;13.07;11.45;;;11.30;39.70;;;;;;4993478;29;20046;-66
2021/04/17 10:52:30;;;;;;;13.23;11.80;;;11.40;39.00;;;;;;4989282;29;20057;-66
2021/04/17 10:55:02;;;;;;;17.60;11.73;;;11.70;39.60;;;;;;4989845;29;20054;-68
2021/04/17 10:57:44;;;;;;;13.63;11.38;;;11.90;39.00;;;;;;4989904;29;20152;-67
2021/04/17 11:00:26;;;;;;;13.70;12.18;;;11.80;37.80;;;;;;4986775;29;20063;-67
2021/04/17 11:02:57;;;;;;;13.45;11.90;;;11.70;37.90;;;;;;4989381;29;20049;-67
2021/04/17 11:05:31;;;;;;;13.35;11.85;;;11.30;39.20;;;;;;4990279;29;20052;-66
2021/04/17 11:08:07;;;;;;;15.95;11.93;;;11.20;38.60;;;;;;5001405;29;20074;-67
2021/04/17 11:10:40;;;;;;;13.68;11.90;;;11.30;39.50;;;;;;4987563;29;20492;-67
2021/04/17 11:13:26;;;;;;;14.05;12.10;;;11.60;40.00;;;;;;4990735;29;20046;-67
2021/04/17 11:15:58;;;;;;;13.70;11.70;;;11.90;38.40;;;;;;4985782;29;20484;-68
2021/04/17 11:18:55;;;;;;;13.90;11.77;;;12.10;39.20;;;;;;4990688;29;20056;-67
2021/04/17 11:21:27;;;;;;;14.30;11.98;;;12.40;37.80;;;;;;4989549;29;20125;-68
2021/04/17 11:24:02;;;;;;;13.45;12.02;;;12.50;37.70;;;;;;4990384;29;20054;-68
2021/04/17 11:26:38;;;;;;;14.05;12.55;;;12.50;38.00;;;;;;4991696;29;20595;-64
2021/04/17 11:29:13;;;;;;;12.93;11.38;;;12.30;37.60;;;;;;5004045;29;20153;-65
2021/04/17 11:31:46;;;;;;;15.07;11.95;;;12.10;38.20;;;;;;4988216;29;20430;-64
2021/04/17 11:34:18;;;;;;;13.80;11.75;;;11.90;38.40;;;;;;4991249;29;20040;-64
2021/04/17 11:36:50;;;;;;;13.85;12.13;;;11.60;38.30;;;;;;5003501;29;20050;-65
2021/04/17 11:39:21;;;;;;;14.48;12.02;;;11.40;39.30;;;;;;4988486;29;20477;-63
2021/04/17 11:41:53;;;;;;;15.43;12.02;;;11.20;39.70;;;;;;4992758;29;20046;-63
2021/04/17 11:44:25;;;;;;;13.80;12.27;;;11.20;39.70;;;;;;4990764;29;20139;-64
2021/04/17 11:46:57;;;;;;;15.32;12.48;;;10.90;39.80;;;;;;4990816;29;20585;-63
2021/04/17 11:49:29;;;;;;;14.48;12.52;;;10.80;39.80;;;;;;4989166;29;20054;-63
2021/04/17 11:52:00;;;;;;;16.80;13.07;;;10.80;40.50;;;;;;4987743;29;20070;-63
2021/04/17 11:54:32;;;;;;;15.23;12.23;;;10.60;40.60;;;;;;4990272;29;20026;-62
2021/04/17 11:57:04;;;;;;;13.68;11.40;;;10.60;41.30;;;;;;4990812;29;20073;-63
2021/04/17 11:59:37;;;;;;;13.40;11.25;;;10.60;42.00;;;;;;4990636;29;20042;-62
2021/04/17 12:02:09;;;;;;;14.25;12.18;;;10.70;40.30;;;;;;5001792;29;20457;-63
2021/04/17 12:04:41;;;;;;;13.30;11.88;;;10.70;41.90;;;;;;4986083;29;20539;-64
2021/04/17 12:07:13;;;;;;;14.55;12.23;;;10.70;40.90;;;;;;4983176;29;20053;-64
2021/04/17 12:09:44;;;;;;;15.23;11.75;;;10.70;41.60;;;;;;4988457;29;20098;-64
2021/04/17 12:12:16;;;;;;;13.45;11.23;;;10.60;41.10;;;;;;4990707;29;20051;-64
2021/04/17 12:14:47;;;;;;;16.42;12.52;;;10.50;40.90;;;;;;5001411;29;20046;-64
2021/04/17 12:17:18;;;;;;;13.75;11.38;;;10.40;41.20;;;;;;4991439;29;20058;-64
2021/04/17 12:19:50;;;;;;;13.25;11.18;;;10.20;41.70;;;;;;4991039;29;20065;-64
2021/04/17 12:22:22;;;;;;;14.85;11.43;;;10.40;43.30;;;;;;4988606;29;20074;-64
2021/04/17 12:24:53;;;;;;;13.05;11.15;;;10.30;43.80;;;;;;4993966;29;20046;-64
2021/04/17 12:27:25;;;;;;;14.02;11.88;;;10.40;43.60;;;;;;4992448;29;20058;-63
2021/04/17 12:29:58;;;;;;;13.98;11.98;;;10.50;42.90;;;;;;4984714;29;20058;-63
2021/04/17 12:32:30;;;;;;;19.77;12.00;;;10.60;43.60;;;;;;4992144;29;20141;-63
2021/04/17 12:35:04;;;;;;;14.60;11.25;;;10.60;42.40;;;;;;4989607;29;20054;-65
2021/04/17 12:37:35;;;;;;;13.75;11.20;;;10.50;42.90;;;;;;4988850;29;20066;-63
2021/04/17 12:40:08;;;;;;;13.20;10.93;;;10.50;44.10;;;;;;4984882;29;20161;-64
2021/04/17 12:42:40;;;;;;;13.43;11.35;;;10.30;44.10;;;;;;4992873;29;20057;-62
2021/04/17 12:45:13;;;;;;;12.73;11.13;;;10.30;43.60;;;;;;4989850;29;20074;-63
2021/04/17 12:47:44;;;;;;;13.35;11.38;;;10.30;43.70;;;;;;4987416;29;20046;-63
2021/04/17 12:50:16;;;;;;;14.07;11.23;;;10.30;44.10;;;;;;4989308;29;20047;-63
2021/04/17 12:52:48;;;;;;;14.57;11.70;;;10.40;44.30;;;;;;4987324;29;20046;-64
2021/04/17 12:55:20;;;;;;;14.07;11.82;;;10.50;44.10;;;;;;4984028;29;20959;-63
2021/04/17 12:57:52;;;;;;;13.27;11.38;;;10.40;43.60;;;;;;4991914;29;20711;-63
2021/04/17 13:00:24;;;;;;;14.93;11.45;;;10.40;43.60;;;;;;4989196;29;20539;-63
2021/04/17 13:02:55;;;;;;;14.57;11.20;;;10.40;43.30;;;;;;4993263;29;20508;-63
2021/04/17 13:05:26;;;;;;;14.20;12.30;;;10.30;44.10;;;;;;4994074;29;20049;-63
2021/04/17 13:07:58;;;;;;;14.32;11.57;;;10.40;43.80;;;;;;5008903;29;20049;-63